Time;durP1;ratioP1;P1;durP2;ratioP2;P2;SDS_P1;SDS_P2;PMS_P1;PMS_P2;Temp;Humidity;BMP_temperature;BMP_pressure;BME280_temperature;BME280_humidity;BME280_pressure;Samples;Min_cycle;Max_cycle;Signal;HPM_P1;HPM_P2
2022/06/10 00:01:54;;;;;;;8.00;6.80;;;;;;;15.06;100.00;96497.59;106959;1265;1454221;-74
2022/06/10 00:04:26;;;;;;;7.10;6.40;;;;;;;15.13;100.00;96500.75;107967;1265;61285;-74
2022/06/10 00:06:58;;;;;;;7.50;6.80;;;;;;;15.21;100.00;96504.93;107952;1265;34649;-75
2022/06/10 00:09:29;;;;;;;8.00;7.10;;;;;;;15.25;100.00;96510.58;107764;1265;123558;-75
2022/06/10 00:12:00;;;;;;;9.40;6.40;;;;;;;15.32;100.00;96518.27;107939;1265;50366;-74
2022/06/10 00:14:31;;;;;;;7.60;6.80;;;;;;;15.39;100.00;96521.89;107956;1265;102874;-75
2022/06/10 00:17:02;;;;;;;9.60;7.10;;;;;;;15.42;100.00;96524.17;107969;1265;65512;-75
2022/06/10 00:19:34;;;;;;;8.00;7.00;;;;;;;15.48;100.00;96523.06;107783;1265;92869;-75
2022/06/10 00:22:05;;;;;;;8.10;7.30;;;;;;;15.55;100.00;96524.40;108023;1265;34579;-75
2022/06/10 00:24:37;;;;;;;8.70;7.70;;;;;;;15.60;100.00;96528.66;106850;1265;1439060;-75
2022/06/10 00:27:08;;;;;;;9.00;7.80;;;;;;;15.66;100.00;96533.63;107762;1265;95701;-75
2022/06/10 00:29:39;;;;;;;10.00;7.10;;;;;;;15.71;100.00;96533.04;107937;1264;36472;-74
2022/06/10 00:32:13;;;;;;;9.70;8.80;;;;;;;15.74;100.00;96534.70;107440;1265;157153;-75
2022/06/10 00:34:44;;;;;;;9.80;8.80;;;;;;;15.72;100.00;96535.52;107956;1265;55535;-75
2022/06/10 00:37:17;;;;;;;10.40;8.30;;;;;;;15.74;100.00;96534.35;107748;1265;108146;-74
2022/06/10 00:39:48;;;;;;;10.60;9.40;;;;;;;15.77;100.00;96530.63;107917;1266;36217;-75
2022/06/10 00:42:19;;;;;;;13.00;11.30;;;;;;;15.80;100.00;96530.60;107652;1265;116247;-74
2022/06/10 00:44:53;;;;;;;13.10;11.80;;;;;;;15.82;100.00;96531.52;107858;1265;41122;-74
2022/06/10 00:47:31;;;;;;;13.50;12.10;;;;;;;15.85;100.00;96533.86;107634;1265;139543;-74
2022/06/10 00:50:17;;;;;;;12.00;10.40;;;;;;;15.89;100.00;96539.88;107671;1265;76488;-75
2022/06/10 00:52:52;;;;;;;13.60;12.10;;;;;;;15.94;100.00;96542.79;107676;1265;124685;-75
2022/06/10 00:55:28;;;;;;;14.80;13.20;;;;;;;15.96;100.00;96545.55;108009;1265;34831;-75
2022/06/10 00:58:06;;;;;;;14.20;12.80;;;;;;;15.96;100.00;96547.85;107515;1265;111423;-75
2022/06/10 01:00:38;;;;;;;15.10;13.50;;;;;;;15.97;100.00;96546.88;107885;1265;81456;-74
2022/06/10 01:03:09;;;;;;;15.00;13.40;;;;;;;16.00;100.00;96547.30;107611;1265;112452;-74
2022/06/10 01:05:41;;;;;;;17.50;15.70;;;;;;;16.01;100.00;96542.93;107859;1265;92390;-74
2022/06/10 01:08:18;;;;;;;19.10;16.70;;;;;;;16.01;100.00;96545.54;107781;1265;123740;-75
2022/06/10 01:11:00;;;;;;;20.60;18.10;;;;;;;16.00;100.00;96547.34;108026;1265;38557;-74
2022/06/10 01:13:39;;;;;;;18.10;16.20;;;;;;;16.04;100.00;96550.23;107711;1265;91790;-75
2022/06/10 01:16:19;;;;;;;17.60;15.70;;;;;;;16.08;100.00;96550.28;107972;1265;38809;-75
2022/06/10 01:18:59;;;;;;;19.10;17.10;;;;;;;16.12;100.00;96549.73;106587;1266;1668770;-75
2022/06/10 01:22:00;;;;;;;19.00;16.80;;;;;;;16.09;100.00;96543.35;107834;1266;43943;-75
2022/06/10 01:25:15;;;;;;;18.00;16.10;;;;;;;16.08;100.00;96549.59;107532;1267;138295;-75
2022/06/10 01:27:58;;;;;;;19.50;16.60;;;;;;;16.06;100.00;96550.23;107969;1265;48675;-75
2022/06/10 01:31:01;;;;;;;18.70;15.80;;;;;;;16.02;100.00;96550.64;107702;1265;140153;-75
2022/06/10 01:33:54;;;;;;;19.00;17.00;;;;;;;16.05;100.00;96550.11;107906;1265;67873;-75
2022/06/10 01:36:40;;;;;;;17.30;15.60;;;;;;;16.05;100.00;96549.62;108062;1265;92254;-75
2022/06/10 01:39:23;;;;;;;22.40;19.60;;;;;;;16.08;100.00;96554.30;108001;1265;34990;-75
2022/06/10 01:42:01;;;;;;;18.70;16.80;;;;;;;16.06;100.00;96556.28;107857;1264;117364;-75
2022/06/10 01:44:40;;;;;;;21.20;19.00;;;;;;;16.07;100.00;96557.08;108043;1265;32345;-75
2022/06/10 01:47:21;;;;;;;20.80;18.60;;;;;;;16.08;100.00;96556.61;107654;1264;166878;-75
2022/06/10 01:49:59;;;;;;;21.00;18.80;;;;;;;16.11;100.00;96556.81;107954;1266;44754;-75
2022/06/10 01:52:37;;;;;;;22.00;19.70;;;;;;;16.15;100.00;96560.17;107741;1265;134072;-75
2022/06/10 01:55:18;;;;;;;23.10;20.20;;;;;;;16.15;100.00;96559.80;107535;1265;93932;-75
2022/06/10 01:57:50;;;;;;;;;;;;;;;16.17;100.00;96567.45;107506;1264;119969;-75
2022/06/10 02:00:25;;;;;;;25.80;23.20;;;;;;;16.14;100.00;96573.30;107997;1265;115248;-75
2022/06/10 02:03:01;;;;;;;28.00;25.00;;;;;;;16.08;100.00;96577.46;107808;1266;117427;-75
2022/06/10 02:05:36;;;;;;;27.80;24.80;;;;;;;16.00;100.00;96577.43;107953;1265;43513;-75
2022/06/10 02:08:14;;;;;;;27.30;24.40;;;;;;;16.02;100.00;96581.41;107708;1265;123468;-75
2022/06/10 02:10:53;;;;;;;26.90;24.10;;;;;;;16.05;100.00;96583.11;107845;1265;107169;-75
2022/06/10 02:13:29;;;;;;;24.90;22.30;;;;;;;15.97;100.00;96586.29;107706;1265;129280;-74
2022/06/10 02:16:05;;;;;;;21.10;18.90;;;;;;;15.94;100.00;96579.84;107825;1265;46360;-75
2022/06/10 02:18:41;;;;;;;28.60;23.50;;;;;;;15.94;100.00;96580.13;107385;1265;147675;-75
2022/06/10 02:21:22;;;;;;;27.40;23.60;;;;;;;15.87;100.00;96584.70;107684;1265;86404;-75
2022/06/10 02:23:57;;;;;;;;;;;;;;;15.77;100.00;96586.98;107842;1265;113414;-75
2022/06/10 02:26:35;;;;;;;27.90;24.90;;;;;;;15.71;100.00;96584.10;107817;1265;101146;-74
2022/06/10 02:29:10;;;;;;;20.60;18.40;;;;;;;15.71;100.00;96591.73;107508;1265;147941;-75
2022/06/10 02:31:44;;;;;;;25.70;22.90;;;;;;;15.72;100.00;96593.54;108013;1265;38519;-74
2022/06/10 02:34:16;;;;;;;26.50;23.00;;;;;;;15.70;100.00;96596.36;106286;1265;2119738;-74
2022/06/10 02:36:54;;;;;;;28.50;25.40;;;;;;;15.73;100.00;96595.80;107877;1265;95643;-74
2022/06/10 02:39:31;;;;;;;30.40;26.70;;;;;;;15.70;100.00;96593.60;107829;1264;129234;-74
2022/06/10 02:42:12;;;;;;;29.60;26.50;;;;;;;15.60;100.00;96593.90;107777;1265;109698;-75
2022/06/10 02:44:50;;;;;;;31.90;28.10;;;;;;;15.54;100.00;96597.55;107701;1264;122951;-74
2022/06/10 02:47:27;;;;;;;32.30;28.00;;;;;;;15.47;100.00;96600.49;107936;1265;83776;-74
2022/06/10 02:49:59;;;;;;;35.30;31.20;;;;;;;15.42;100.00;96600.90;107775;1265;120843;-75
2022/06/10 02:52:38;;;;;;;30.50;26.90;;;;;;;15.41;100.00;96600.23;107987;1265;35772;-75
2022/06/10 02:55:15;;;;;;;28.40;25.40;;;;;;;15.41;100.00;96604.36;106279;1265;2055724;-74
2022/06/10 03:03:52;;;;;;;17.30;15.30;;;;;;;15.44;100.00;96611.81;107850;1265;94422;-75
2022/06/10 03:06:32;;;;;;;23.70;20.90;;;;;;;15.47;100.00;96614.84;107600;1264;136794;-74
2022/06/10 03:09:10;;;;;;;32.90;29.10;;;;;;;15.49;100.00;96618.85;107924;1265;56047;-75
2022/06/10 03:11:53;;;;;;;29.40;26.30;;;;;;;15.47;100.00;96619.73;107639;1265;125835;-74
2022/06/10 03:14:34;;;;;;;31.00;27.30;;;;;;;15.46;100.00;96624.27;108004;1265;35759;-74
2022/06/10 03:17:17;;;;;;;26.50;23.50;;;;;;;15.44;100.00;96627.37;107590;1265;116087;-74
2022/06/10 03:20:03;;;;;;;25.20;22.40;;;;;;;15.42;100.00;96631.70;107887;1266;51375;-74
2022/06/10 03:22:52;;;;;;;26.30;23.40;;;;;;;15.42;100.00;96634.15;106697;1265;1796436;-74
2022/06/10 03:25:28;;;;;;;26.80;24.00;;;;;;;15.41;100.00;96634.05;106995;1265;1291343;-74
2022/06/10 03:28:07;;;;;;;26.80;22.80;;;;;;;15.39;100.00;96632.61;107962;1265;37444;-75
2022/06/10 03:30:53;;;;;;;29.20;24.60;;;;;;;15.38;100.00;96640.62;107532;1265;109135;-74
2022/06/10 03:33:30;;;;;;;28.40;24.00;;;;;;;15.37;100.00;96646.99;107938;1265;126821;-74
2022/06/10 03:36:05;;;;;;;27.30;24.40;;;;;;;15.40;100.00;96650.59;107322;1266;142241;-74
2022/06/10 03:38:43;;;;;;;23.90;21.30;;;;;;;15.43;100.00;96656.23;107964;1264;39079;-74
2022/06/10 03:41:22;;;;;;;23.30;20.80;;;;;;;15.50;100.00;96661.41;107832;1266;111016;-75
2022/06/10 03:43:56;;;;;;;21.90;19.60;;;;;;;15.57;100.00;96667.09;108030;1264;93505;-75
2022/06/10 03:46:31;;;;;;;21.40;19.10;;;;;;;15.67;100.00;96669.09;107560;1266;125309;-75
2022/06/10 03:49:09;;;;;;;20.90;18.70;;;;;;;15.75;100.00;96675.98;107877;1265;65486;-75
2022/06/10 03:51:41;;;;;;;18.30;16.40;;;;;;;15.85;100.00;96678.45;107873;1265;76055;-75
2022/06/10 03:54:18;;;;;;;19.70;17.70;;;;;;;15.95;100.00;96679.11;107712;1267;113518;-75
2022/06/10 03:56:52;;;;;;;21.60;19.40;;;;;;;16.01;100.00;96679.98;107918;1265;91583;-75
2022/06/10 03:59:23;;;;;;;21.60;19.40;;;;;;;16.02;100.00;96679.06;107751;1265;141662;-74
2022/06/10 04:01:54;;;;;;;20.50;18.40;;;;;;;16.11;100.00;96681.52;108065;1265;50895;-74
2022/06/10 04:04:25;;;;;;;20.80;18.70;;;;;;;16.25;100.00;96687.14;107547;1265;149046;-74
2022/06/10 04:06:56;;;;;;;21.10;18.80;;;;;;;16.42;100.00;96688.20;107975;1265;84672;-74
2022/06/10 04:09:28;;;;;;;19.60;17.60;;;;;;;16.42;100.00;96692.13;107716;1265;119807;-75
2022/06/10 04:11:59;;;;;;;17.20;15.60;;;;;;;16.38;100.00;96696.92;107956;1265;52677;-74
2022/06/10 04:14:30;;;;;;;18.50;16.60;;;;;;;16.29;100.00;96696.55;107975;1264;36329;-75
2022/06/10 04:17:01;;;;;;;19.30;17.30;;;;;;;16.24;100.00;96699.79;107778;1266;79639;-74
2022/06/10 04:19:32;;;;;;;19.20;17.20;;;;;;;16.21;100.00;96700.42;107928;1266;33230;-74
2022/06/10 04:22:04;;;;;;;21.60;19.30;;;;;;;16.22;100.00;96698.60;107483;1265;148250;-75
2022/06/10 04:24:36;;;;;;;21.70;19.40;;;;;;;16.26;100.00;96702.17;107937;1266;34935;-74
2022/06/10 04:27:08;;;;;;;21.70;19.50;;;;;;;16.36;100.00;96702.55;107744;1265;103453;-74
2022/06/10 04:29:39;;;;;;;19.60;17.60;;;;;;;16.43;100.00;96705.39;107954;1265;68739;-74
2022/06/10 04:32:12;;;;;;;18.30;16.50;;;;;;;16.55;100.00;96710.70;106266;1265;2117943;-75
2022/06/10 04:34:43;;;;;;;18.00;16.20;;;;;;;16.71;100.00;96714.26;107596;1264;106940;-74
2022/06/10 04:37:14;;;;;;;16.20;14.40;;;;;;;16.86;100.00;96719.52;107942;1265;43762;-74
2022/06/10 04:39:45;;;;;;;13.60;12.20;;;;;;;17.11;100.00;96718.98;107797;1265;131097;-74
2022/06/10 04:42:22;;;;;;;15.10;13.50;;;;;;;17.29;100.00;96720.73;107890;1265;36248;-74
2022/06/10 04:44:53;;;;;;;15.90;14.40;;;;;;;17.35;100.00;96721.37;107840;1264;78193;-74
2022/06/10 04:47:24;;;;;;;18.80;17.00;;;;;;;17.36;100.00;96719.88;108067;1265;35048;-74
2022/06/10 04:49:59;;;;;;;16.80;15.10;;;;;;;17.33;99.85;96723.02;107880;1265;100078;-75
2022/06/10 04:52:30;;;;;;;15.10;13.50;;;;;;;17.44;99.56;96728.74;107961;1265;36782;-75
2022/06/10 04:55:02;;;;;;;15.00;13.60;;;;;;;17.59;99.04;96730.73;107678;1265;99173;-75
2022/06/10 04:57:34;;;;;;;13.80;12.40;;;;;;;17.73;98.44;96741.63;107950;1265;35152;-75
2022/06/10 05:00:07;;;;;;;15.90;14.30;;;;;;;17.79;97.73;96737.41;107445;1266;133883;-75
2022/06/10 05:02:39;;;;;;;18.60;16.90;;;;;;;17.81;97.26;96740.02;107943;1267;61605;-74
2022/06/10 05:05:11;;;;;;;15.40;13.80;;;;;;;17.88;97.42;96736.77;107893;1265;77219;-74
2022/06/10 05:07:45;;;;;;;13.60;12.30;;;;;;;17.86;96.72;96735.92;107939;1265;103907;-75
2022/06/10 05:10:18;;;;;;;11.60;10.40;;;;;;;17.83;95.98;96735.49;107781;1265;156684;-74
2022/06/10 05:12:50;;;;;;;11.00;10.00;;;;;;;17.69;95.06;96738.27;107978;1265;33747;-74
2022/06/10 05:15:22;;;;;;;10.80;9.80;;;;;;;17.58;94.98;96740.66;107716;1266;99370;-74
2022/06/10 05:17:56;;;;;;;11.50;10.40;;;;;;;17.57;95.30;96746.59;107907;1265;87073;-74
2022/06/10 05:20:31;;;;;;;10.80;9.70;;;;;;;17.58;95.04;96746.20;107613;1265;93423;-75
2022/06/10 05:23:02;;;;;;;10.10;9.10;;;;;;;17.56;94.68;96750.28;107933;1265;49833;-75
2022/06/10 05:25:35;;;;;;;10.00;9.00;;;;;;;17.61;94.61;96751.60;107750;1265;141509;-75
2022/06/10 05:28:07;;;;;;;11.10;10.00;;;;;;;17.64;94.44;96754.08;107957;1266;32980;-75
2022/06/10 05:30:39;;;;;;;9.80;8.70;;;;;;;17.72;94.32;96755.19;107804;1265;128527;-74
2022/06/10 05:33:12;;;;;;;11.50;10.30;;;;;;;17.93;94.87;96761.65;107853;1265;87040;-75
2022/06/10 05:35:45;;;;;;;13.00;11.70;;;;;;;18.11;94.34;96763.69;107903;1265;36793;-75
2022/06/10 05:38:16;;;;;;;11.50;10.30;;;;;;;18.19;93.76;96762.63;107580;1264;126451;-74
2022/06/10 05:40:47;;;;;;;11.00;10.00;;;;;;;18.28;93.67;96768.29;108007;1265;50634;-74
2022/06/10 05:43:18;;;;;;;12.30;11.20;;;;;;;18.52;94.11;96772.35;107733;1265;94903;-74
2022/06/10 05:45:50;;;;;;;12.20;10.80;;;;;;;18.65;93.14;96774.39;107930;1264;40660;-75
2022/06/10 05:48:21;;;;;;;12.30;11.10;;;;;;;18.60;92.43;96779.27;107746;1266;70248;-75
2022/06/10 05:50:52;;;;;;;13.00;11.60;;;;;;;18.54;91.75;96783.33;107983;1267;46309;-75
2022/06/10 05:53:23;;;;;;;13.00;11.70;;;;;;;18.53;91.67;96786.50;108025;1264;49724;-74
2022/06/10 05:55:55;;;;;;;11.20;10.00;;;;;;;18.54;91.36;96792.52;108060;1264;35114;-74
2022/06/10 05:58:26;;;;;;;11.20;9.90;;;;;;;18.60;90.94;96797.96;108117;1264;37467;-75
2022/06/10 06:00:57;;;;;;;11.10;10.00;;;;;;;18.58;90.21;96801.79;107941;1264;67452;-75
2022/06/10 06:03:28;;;;;;;10.60;9.60;;;;;;;18.65;90.63;96796.81;107888;1265;58353;-75
2022/06/10 06:06:02;;;;;;;11.50;10.40;;;;;;;18.70;90.16;96797.45;107792;1265;87731;-75
2022/06/10 06:08:33;;;;;;;9.50;8.60;;;;;;;18.70;90.04;96798.23;107992;1265;38591;-75
2022/06/10 06:11:05;;;;;;;9.40;8.40;;;;;;;18.67;89.36;96796.65;107893;1265;83888;-75
2022/06/10 06:13:36;;;;;;;9.20;8.30;;;;;;;18.62;89.04;96799.34;107993;1265;37959;-74
2022/06/10 06:16:09;;;;;;;8.50;7.70;;;;;;;18.64;88.90;96802.88;107861;1265;94530;-74
2022/06/10 06:18:41;;;;;;;9.40;8.20;;;;;;;18.81;89.41;96804.66;108029;1265;35539;-75
2022/06/10 06:21:12;;;;;;;8.70;7.90;;;;;;;19.06;88.65;96801.44;107815;1265;89633;-75
2022/06/10 06:23:43;;;;;;;9.20;8.30;;;;;;;19.32;88.29;96801.20;107922;1265;34937;-75
2022/06/10 06:26:16;;;;;;;8.70;7.80;;;;;;;19.66;87.90;96795.52;107849;1265;63297;-75
2022/06/10 06:28:48;;;;;;;8.90;7.10;;;;;;;19.88;86.45;96800.50;107949;1265;49620;-75
2022/06/10 06:31:19;;;;;;;8.70;7.80;;;;;;;19.76;84.71;96804.93;107846;1265;121478;-75
2022/06/10 06:33:51;;;;;;;9.40;8.20;;;;;;;19.56;84.41;96801.86;107857;1265;89107;-75
2022/06/10 06:36:25;;;;;;;10.10;8.20;;;;;;;19.34;84.04;96812.20;107727;1265;136962;-75
2022/06/10 06:39:00;;;;;;;10.30;9.30;;;;;;;19.18;83.95;96815.45;107990;1265;55638;-75
2022/06/10 06:41:32;;;;;;;10.10;8.70;;;;;;;18.97;84.58;96821.05;107957;1265;71574;-75
2022/06/10 06:44:05;;;;;;;10.60;9.50;;;;;;;18.86;84.63;96814.36;107433;1265;103129;-75
2022/06/10 06:46:39;;;;;;;10.40;9.30;;;;;;;18.73;85.08;96820.15;107821;1265;92795;-74
2022/06/10 06:49:14;;;;;;;11.10;10.00;;;;;;;18.59;85.40;96815.33;107885;1265;63092;-75
2022/06/10 06:51:46;;;;;;;10.50;9.40;;;;;;;18.62;85.95;96816.54;107881;1265;55684;-75
2022/06/10 06:54:18;;;;;;;9.60;8.50;;;;;;;18.76;85.51;96813.06;107916;1265;73319;-75
2022/06/10 06:56:49;;;;;;;9.30;8.40;;;;;;;18.90;85.22;96818.80;108007;1264;51018;-74
2022/06/10 06:59:20;;;;;;;8.80;7.90;;;;;;;19.06;84.53;96817.70;107835;1265;64825;-75
2022/06/10 07:01:51;;;;;;;9.60;8.70;;;;;;;19.24;84.64;96823.17;107959;1265;41099;-75
2022/06/10 07:04:23;;;;;;;10.20;9.20;;;;;;;19.60;84.18;96824.42;107882;1266;74488;-75
2022/06/10 07:06:54;;;;;;;10.70;9.00;;;;;;;19.56;82.93;96824.98;108018;1266;40323;-74
2022/06/10 07:09:25;;;;;;;10.50;8.80;;;;;;;19.61;83.41;96826.06;107927;1266;67041;-74
2022/06/10 07:11:56;;;;;;;10.00;9.00;;;;;;;20.14;82.58;96826.56;108092;1265;33903;-75
2022/06/10 07:14:27;;;;;;;9.80;8.80;;;;;;;20.10;80.73;96824.23;107858;1267;60159;-75
2022/06/10 07:16:59;;;;;;;9.20;8.20;;;;;;;19.92;80.58;96827.14;107839;1266;73251;-76
2022/06/10 07:19:30;;;;;;;10.90;9.80;;;;;;;20.18;79.91;96822.79;107832;1265;75767;-76
2022/06/10 07:22:01;;;;;;;11.20;10.00;;;;;;;20.26;79.68;96821.44;107849;1265;74599;-75
2022/06/10 07:24:32;;;;;;;12.10;10.90;;;;;;;20.28;80.40;96823.82;107786;1266;101921;-75
2022/06/10 07:27:04;;;;;;;10.40;9.40;;;;;;;20.36;80.35;96817.85;108012;1266;33144;-75
2022/06/10 07:29:36;;;;;;;11.00;10.00;;;;;;;20.16;78.93;96823.71;107777;1264;71293;-75
2022/06/10 07:32:08;;;;;;;10.90;9.80;;;;;;;19.85;79.71;96823.69;108023;1265;36969;-74
2022/06/10 07:34:39;;;;;;;12.00;10.80;;;;;;;19.69;80.07;96823.59;107794;1264;106631;-75
2022/06/10 07:37:30;;;;;;;11.00;8.90;;;;;;;19.69;80.50;96826.15;108019;1265;33955;-75
2022/06/10 07:40:01;;;;;;;10.60;9.50;;;;;;;20.06;81.21;96830.02;107754;1266;123344;-75
2022/06/10 07:42:34;;;;;;;9.30;8.00;;;;;;;20.28;80.43;96834.02;107952;1265;37575;-75
2022/06/10 07:45:06;;;;;;;10.60;8.70;;;;;;;20.28;79.77;96836.05;107804;1266;85874;-75
2022/06/10 07:47:38;;;;;;;9.60;8.70;;;;;;;20.20;79.74;96841.46;107924;1266;36061;-75
2022/06/10 07:50:10;;;;;;;10.20;9.10;;;;;;;20.15;80.12;96841.18;107529;1265;135764;-75
2022/06/10 07:52:41;;;;;;;9.80;8.80;;;;;;;20.14;78.85;96845.73;107944;1266;37562;-75
2022/06/10 07:55:13;;;;;;;10.10;8.70;;;;;;;19.91;79.35;96846.65;107923;1266;65674;-75
2022/06/10 07:57:44;;;;;;;10.90;9.00;;;;;;;19.84;79.80;96852.48;107928;1267;36487;-75
2022/06/10 08:00:18;;;;;;;10.30;9.20;;;;;;;19.58;78.98;96855.25;107898;1265;81012;-75
2022/06/10 08:02:50;;;;;;;10.60;9.50;;;;;;;19.38;80.01;96858.56;107932;1265;86726;-75
2022/06/10 08:05:21;;;;;;;11.00;9.60;;;;;;;19.25;79.79;96859.80;107940;1266;34470;-75
2022/06/10 08:07:52;;;;;;;11.40;9.40;;;;;;;19.18;80.66;96859.78;107770;1265;110083;-75
2022/06/10 08:10:27;;;;;;;10.40;9.30;;;;;;;19.15;80.80;96864.52;108078;1266;33648;-74
2022/06/10 08:12:58;;;;;;;10.40;9.00;;;;;;;19.33;81.82;96870.08;106437;1266;1783729;-75
2022/06/10 08:15:30;;;;;;;10.30;9.20;;;;;;;19.53;82.40;96869.36;107926;1266;57237;-75
2022/06/10 08:18:01;;;;;;;10.00;8.90;;;;;;;19.55;81.59;96875.52;107925;1267;65860;-74
2022/06/10 08:23:27;;;;;;;10.50;9.40;;;;;;;19.31;80.73;96880.22;107832;1265;128698;-75
2022/06/10 08:26:00;;;;;;;11.40;10.20;;;;;;;19.37;81.60;96885.41;107918;1266;63382;-75
2022/06/10 08:28:31;;;;;;;11.80;10.60;;;;;;;19.44;81.82;96878.54;107715;1264;174166;-75
2022/06/10 08:31:03;;;;;;;12.60;11.30;;;;;;;19.32;81.08;96887.02;107695;1267;111732;-75
2022/06/10 08:33:35;;;;;;;13.30;11.00;;;;;;;19.12;80.98;96890.63;107947;1264;57148;-75
2022/06/10 08:36:08;;;;;;;14.00;12.50;;;;;;;19.06;81.58;96894.48;107354;1266;134862;-75
2022/06/10 08:38:42;;;;;;;14.20;12.80;;;;;;;19.03;82.30;96897.20;107948;1265;55631;-75
2022/06/10 08:41:23;;;;;;;17.50;15.40;;;;;;;19.07;82.14;96901.36;107761;1267;101923;-75
2022/06/10 08:44:02;;;;;;;17.00;15.30;;;;;;;18.95;82.30;96901.65;108039;1265;41395;-74
2022/06/10 08:46:50;;;;;;;18.40;16.50;;;;;;;18.80;82.46;96906.08;107817;1265;84651;-75
2022/06/10 08:49:42;;;;;;;17.50;15.50;;;;;;;18.75;83.46;96903.80;107725;1267;400305;-75
2022/06/10 08:52:22;;;;;;;20.80;17.70;;;;;;;18.81;83.87;96903.33;107833;1266;88564;-74
2022/06/10 08:55:01;;;;;;;19.30;17.50;;;;;;;18.83;83.57;96908.55;108033;1266;37194;-74
2022/06/10 08:57:37;;;;;;;19.70;17.70;;;;;;;18.84;84.20;96914.09;107605;1266;109614;-74
2022/06/10 09:00:18;;;;;;;19.90;17.90;;;;;;;18.87;83.99;96912.80;107924;1266;35289;-74
2022/06/10 09:02:57;;;;;;;23.20;20.70;;;;;;;18.69;83.32;96917.71;107897;1265;59031;-74
2022/06/10 09:05:31;;;;;;;22.60;20.20;;;;;;;18.51;83.85;96925.05;107957;1266;43442;-75
2022/06/10 09:08:05;;;;;;;22.80;20.40;;;;;;;18.41;84.06;96929.44;107750;1266;130298;-74
2022/06/10 09:10:40;;;;;;;21.90;19.60;;;;;;;18.40;84.52;96936.80;107947;1266;36372;-75
2022/06/10 09:13:21;;;;;;;23.10;20.60;;;;;;;18.39;84.92;96940.75;107660;1266;92035;-74
2022/06/10 09:15:59;;;;;;;24.00;21.40;;;;;;;18.39;85.03;96943.21;108060;1265;32146;-74
2022/06/10 09:18:40;;;;;;;23.90;21.40;;;;;;;18.38;85.29;96943.85;107823;1265;107558;-75
2022/06/10 09:21:18;;;;;;;22.50;20.30;;;;;;;18.34;85.60;96947.98;108004;1267;34987;-75
2022/06/10 09:23:50;;;;;;;25.20;22.50;;;;;;;18.36;86.12;96949.73;107886;1266;70196;-74
2022/06/10 09:26:27;;;;;;;26.20;23.40;;;;;;;18.30;85.70;96951.27;107947;1265;35513;-74
2022/06/10 09:28:59;;;;;;;26.00;23.20;;;;;;;18.25;85.79;96952.47;107665;1266;125865;-75
2022/06/10 09:31:40;;;;;;;26.30;23.50;;;;;;;18.23;86.16;96955.54;107909;1266;37859;-75
2022/06/10 09:34:21;;;;;;;26.40;23.60;;;;;;;18.18;86.17;96963.38;107707;1266;132784;-74
2022/06/10 09:37:00;;;;;;;27.90;24.70;;;;;;;18.15;86.45;96967.92;107980;1266;43018;-74
2022/06/10 09:42:43;;;;;;;26.60;23.80;;;;;;;17.78;86.84;96963.46;107925;1266;34079;-75
2022/06/10 09:45:24;;;;;;;30.00;24.70;;;;;;;17.76;87.48;96966.16;107785;1265;95187;-75
2022/06/10 09:48:02;;;;;;;;;;;;;;;17.82;87.87;96970.41;108038;1266;34849;-74
2022/06/10 09:50:36;;;;;;;26.90;23.80;;;;;;;17.99;88.17;96968.31;107644;1266;129520;-75
2022/06/10 09:53:30;;;;;;;27.50;22.00;;;;;;;18.14;88.36;96970.80;107926;1266;38970;-75
2022/06/10 09:56:37;;;;;;;25.80;22.60;;;;;;;18.39;88.00;96970.94;107505;1266;160626;-75
2022/06/10 09:59:19;;;;;;;26.20;23.40;;;;;;;18.51;87.82;96970.23;107864;1267;117080;-75
2022/06/10 10:02:04;;;;;;;28.90;24.90;;;;;;;18.73;87.64;96970.95;107629;1265;133813;-75
2022/06/10 10:04:53;;;;;;;27.30;24.30;;;;;;;18.80;87.30;96974.20;107817;1267;99115;-75
2022/06/10 10:07:32;;;;;;;24.50;21.90;;;;;;;18.88;87.21;96972.21;107734;1267;125997;-75
2022/06/10 10:10:21;;;;;;;25.10;22.60;;;;;;;19.01;87.31;96974.97;107791;1267;110373;-75
2022/06/10 10:13:23;;;;;;;29.20;24.70;;;;;;;19.13;86.73;96973.30;107491;1267;148787;-75
2022/06/10 10:16:06;;;;;;;28.10;25.20;;;;;;;19.00;85.57;96976.61;107963;1266;46894;-75
2022/06/10 10:18:54;;;;;;;29.20;25.00;;;;;;;18.95;85.97;96984.12;107502;1265;180407;-75
2022/06/10 10:21:33;;;;;;;24.40;21.60;;;;;;;18.82;85.78;96988.52;108027;1266;47210;-75
2022/06/10 10:24:11;;;;;;;25.90;21.50;;;;;;;18.68;86.14;96989.81;107518;1265;157292;-75
2022/06/10 10:26:45;;;;;;;23.60;20.80;;;;;;;18.54;86.07;96992.30;107922;1266;73318;-75
2022/06/10 10:29:20;;;;;;;22.30;19.90;;;;;;;18.25;86.29;96993.36;107650;1266;157799;-75
2022/06/10 10:31:59;;;;;;;22.10;19.60;;;;;;;18.00;86.96;96996.19;107848;1266;67938;-75
2022/06/10 10:34:36;;;;;;;22.80;19.00;;;;;;;17.92;87.73;96989.79;107419;1266;122021;-75
2022/06/10 10:37:21;;;;;;;20.50;18.30;;;;;;;17.88;88.17;96992.43;107934;1266;36052;-75
2022/06/10 10:39:59;;;;;;;19.90;17.80;;;;;;;17.80;88.54;96998.45;107452;1266;202214;-75
2022/06/10 10:42:35;;;;;;;21.90;18.20;;;;;;;17.93;88.78;97000.17;107745;1266;80873;-75
2022/06/10 10:45:16;;;;;;;19.80;17.80;;;;;;;18.05;88.99;96998.30;107523;1266;116001;-75
2022/06/10 10:47:56;;;;;;;19.60;17.50;;;;;;;18.17;88.84;97004.67;107884;1265;37999;-75
2022/06/10 10:50:33;;;;;;;20.20;17.90;;;;;;;18.10;88.50;97010.95;107533;1266;128799;-74
2022/06/10 10:53:20;;;;;;;20.20;18.20;;;;;;;17.98;88.47;97001.68;107910;1267;35122;-75
2022/06/10 10:55:55;;;;;;;23.20;19.70;;;;;;;18.00;88.94;97006.98;107530;1266;134884;-74
2022/06/10 10:58:33;;;;;;;22.20;19.50;;;;;;;18.00;88.88;97006.44;107901;1266;124594;-75
2022/06/10 11:01:07;;;;;;;24.00;21.40;;;;;;;18.07;89.38;97008.21;107705;1265;147635;-75
2022/06/10 11:03:52;;;;;;;22.10;19.90;;;;;;;18.04;89.06;97011.69;107971;1265;35848;-74
2022/06/10 11:06:30;;;;;;;20.70;18.60;;;;;;;17.85;88.81;97012.34;107495;1265;148220;-74
2022/06/10 11:09:04;;;;;;;21.50;19.30;;;;;;;17.83;89.25;97014.64;107783;1266;73416;-75
2022/06/10 11:11:38;;;;;;;22.60;20.30;;;;;;;17.88;89.60;97019.33;107619;1267;112997;-75
2022/06/10 11:14:23;;;;;;;22.00;19.70;;;;;;;17.80;89.68;97017.80;107855;1265;84644;-75
2022/06/10 11:17:17;;;;;;;23.00;20.60;;;;;;;17.75;89.95;97018.91;107736;1265;132384;-74
2022/06/10 11:19:52;;;;;;;21.90;19.30;;;;;;;17.68;89.98;97013.04;107952;1265;37969;-75
2022/06/10 11:22:36;;;;;;;21.00;18.60;;;;;;;17.68;90.43;97014.71;107866;1265;81029;-75
2022/06/10 11:25:29;;;;;;;18.10;16.40;;;;;;;17.91;90.94;97012.41;107970;1265;36979;-74
2022/06/10 11:28:19;;;;;;;21.50;19.20;;;;;;;17.99;90.20;97013.67;107612;1264;122210;-75
2022/06/10 11:30:49;;;;;;;;;;;;;;;18.11;90.47;97016.95;107961;1267;35272;-75
2022/06/10 11:33:27;;;;;;;20.00;18.00;;;;;;;18.16;90.20;97014.98;107552;1265;138031;-74
2022/06/10 11:36:09;;;;;;;19.70;17.70;;;;;;;18.21;90.25;97014.02;107700;1265;108896;-75
2022/06/10 11:39:07;;;;;;;22.60;20.40;;;;;;;18.23;89.65;97015.65;107692;1266;127946;-74
2022/06/10 11:41:39;;;;;;;22.00;19.90;;;;;;;18.07;89.57;97012.73;107941;1265;35115;-74
2022/06/10 11:44:19;;;;;;;22.50;20.30;;;;;;;17.97;89.79;97011.43;107798;1265;135096;-75
2022/06/10 11:46:56;;;;;;;22.50;20.20;;;;;;;17.74;89.81;97006.42;107852;1266;104068;-75
2022/06/10 11:49:34;;;;;;;20.20;18.20;;;;;;;17.58;90.67;97009.83;107972;1265;87482;-74
2022/06/10 11:52:12;;;;;;;22.50;20.30;;;;;;;17.46;91.18;97012.02;107742;1265;108544;-75
2022/06/10 11:54:51;;;;;;;18.80;16.90;;;;;;;17.49;91.85;97009.72;107653;1266;116165;-75
2022/06/10 12:00:27;;;;;;;21.30;19.20;;;;;;;17.67;92.29;97010.76;107606;1266;141458;-75
2022/06/10 12:03:08;;;;;;;22.00;19.90;;;;;;;17.72;92.14;97013.02;107914;1265;110152;-75